Nearby METAR Reports

 

KMEV - Minden, Nevada, USA
Distance from station: N 3mi, 5km
Updated: Thu, 22-Feb-2018 2:55am PST
Clear
Clear
 Wind from SW
Wind: SW 13 mph , 20 km/h
Temperature: 28°F , -2°C
Wind Chill: 17°F , -8°C
Dew Point: 5°F , -15°C
Humidity: 37%
Barometer: 29.98 inHg , 1015.2 hPa
Clouds: Clear
Visibility: 10 miles , 16 km
2018/02/22 10:55 KMEV 221055Z AUTO 22011KT 10SM CLR M02/M15 A2998 RMK AO2
KCXP - Carson City, Nevada, USA
Distance from station: N 10mi, 16km
Updated: Thu, 22-Feb-2018 2:55am PST
Clear
Clear
 Wind from WSW
Wind: WSW 9 mph , 15 km/h
Temperature: 30°F , -1°C
Wind Chill: 22°F , -6°C
Dew Point: 7°F , -14°C
Humidity: 37%
Barometer: 29.97 inHg , 1014.9 hPa
Clouds: Clear
Visibility: 10 miles , 16 km
2018/02/22 10:55 KCXP 221055Z AUTO 25008KT 10SM CLR M01/M14 A2997 RMK AO2
 
KTVL - South Lake Tahoe, California, USA
Distance from station: WSW 18mi, 29km
Updated: Thu, 22-Feb-2018 2:53am PST
Clear
Clear
 Wind from S
Wind: S 15 mph , 24 km/h, Gust: 21 mph , 33 km/h
Temperature: 21°F , -6°C
Wind Chill: 7°F , -14°C
Dew Point: 10°F , -12°C
Humidity: 63%
Barometer: 29.95 inHg , 1014.2 hPa
Clouds: Clear
Visibility: 10 miles , 16 km
2018/02/22 10:53 KTVL 221053Z AUTO 19013G18KT 10SM CLR M06/M12 A2995 RMK AO2 SLP155 T10561122
KTRK - Truckee Tahoe, California, USA
Distance from station: NW 29mi, 46km
Updated: Thu, 22-Feb-2018 2:55am PST
Overcast
Overcast
 Wind from SW
Wind: SW 7 mph , 11 km/h
Temperature: 21°F , -6°C
Wind Chill: 12°F , -11°C
Dew Point: 14°F , -10°C
Humidity: 74%
Barometer: 29.95 inHg , 1014.2 hPa
Clouds: Overcast
Visibility: 10 miles , 16 km
Cloud details: Overcast 3500 ft
2018/02/22 10:55 KTRK 221055Z AUTO 22006KT 10SM OVC035 M06/M10 A2995 RMK AO2
 
KRNO - Reno, Nevada, USA
Distance from station: N 31mi, 50km
Updated: Thu, 22-Feb-2018 2:55am PST
Mostly cloudy
Mostly cloudy
 Wind from calm
Wind: Calm
Temperature: 34°F , 1°C
Dew Point: 9°F , -13°C
Humidity: 35%
Barometer: 29.94 inHg , 1013.9 hPa
Clouds: Mostly cloudy
Visibility: 10 miles , 16 km
Cloud details: Mostly cloudy 6000 ft
Mostly cloudy 9000 ft
2018/02/22 10:55 KRNO 221055Z 00000KT 10SM BKN060 BKN090 01/M13 A2994 RMK AO2 SLP139 T00061128
KRTS - Reno/Stead, Nevada, USA
Distance from station: NNW 44mi, 71km
Updated: Thu, 22-Feb-2018 2:55am PST
Overcast
Overcast
 Wind from WNW
Wind: WNW 7 mph , 11 km/h
Temperature: 27°F , -3°C
Wind Chill: 19°F , -7°C
Dew Point: 10°F , -12°C
Humidity: 50%
Barometer: 29.96 inHg , 1014.6 hPa
Clouds: Overcast
Visibility: 10 miles , 16 km
Cloud details: Mostly cloudy 4400 ft
Overcast 7500 ft
2018/02/22 10:55 KRTS 221055Z AUTO 29006KT 10SM BKN044 OVC075 M03/M12 A2996 RMK AO2
 
KBLU - Emigrant Gap, California, USA
Distance from station: WNW 55mi, 89km
Updated: Thu, 22-Feb-2018 2:52am PST
Overcast
Overcast
 Wind from SSE
Wind: SSE 10 mph , 17 km/h, Gust: 17 mph , 28 km/h
Temperature: 25°F , -4°C
Wind Chill: 15°F , -9°C
Dew Point: 16°F , -9°C
Humidity: 69%
Barometer: 30.01 inHg , 1016.3 hPa
Clouds: Overcast
Visibility: 10 miles , 16 km
Cloud details: Partly cloudy 1800 ft
Mostly cloudy 2300 ft
Overcast 2800 ft
2018/02/22 10:52 KBLU 221052Z AUTO 16009G15KT 10SM SCT018 BKN023 OVC028 M04/M09 A3001 RMK AO2 SNB11E20 SLP184 P0000 T10441089
KPVF - Placerville, California, USA
Distance from station: WSW 60mi, 96km
Updated: Thu, 22-Feb-2018 2:35am PST
Overcast
Overcast
 Wind from SE
Wind: SE 9 mph , 15 km/h
Temperature: 32°F , 0°C
Wind Chill: 24°F , -4°C
Dew Point: 16°F , -9°C
Humidity: 51%
Barometer: 30.12 inHg , 1020 hPa
Clouds: Overcast
Visibility: 10 miles , 16 km
Cloud details: Overcast 10000 ft
2018/02/22 10:35 KPVF 221035Z AUTO 13008KT 10SM OVC100 00/M09 A3012 RMK AO1
 
KNFL - Fallon Nas, Nevada, USA
Distance from station: ENE 61mi, 97km
Updated: Thu, 22-Feb-2018 2:56am PST
Overcast
Overcast
 Wind from S
Wind: S 5 mph , 7 km/h
Temperature: 25°F , -4°C
Wind Chill: 19°F , -7°C
Dew Point: 12°F , -11°C
Humidity: 59%
Barometer: 29.96 inHg , 1014.6 hPa
Clouds: Overcast
Visibility: 10 miles , 16 km
Cloud details: Overcast 10000 ft
2018/02/22 10:56 KNFL 221056Z AUTO 18004KT 10SM OVC100 M04/M11 A2996 RMK AO2 SLP116 T10391106
KGOO - Grass Valley, California, USA
Distance from station: W 70mi, 112km
Updated: Thu, 22-Feb-2018 3:00am PST
Overcast
Overcast
 Wind from SSE
Wind: SSE 6 mph , 9 km/h
Temperature: 34°F , 1°C
Wind Chill: 29°F , -2°C
Dew Point: 19°F , -7°C
Humidity: 56%
Barometer: 30.07 inHg , 1018.3 hPa
Clouds: Overcast
Visibility: 10 miles , 16 km
Cloud details: Overcast 2700 ft
2018/02/22 11:00 KGOO 221100Z AUTO 15005KT 10SM OVC027 01/M07 A3007 RMK AO1
 
KAUN - Auburn Muni, California, USA
Distance from station: W 73mi, 118km
Updated: Thu, 22-Feb-2018 2:55am PST
Mostly cloudy
Mostly cloudy
 Wind from SSE
Wind: SSE 8 mph , 13 km/h
Temperature: 39°F , 4°C
Wind Chill: 33°F , 1°C
Dew Point: 27°F , -3°C
Humidity: 61%
Barometer: 30.12 inHg , 1020 hPa
Clouds: Mostly cloudy
Visibility: 10 miles , 16 km
Cloud details: Mostly cloudy 4900 ft
2018/02/22 10:55 KAUN 221055Z AUTO 15007KT 10SM BKN049 04/M03 A3012 RMK AO1
KO22 - Columbia, California, USA
Distance from station: SSW 79mi, 127km
Updated: Thu, 22-Feb-2018 2:55am PST
Clear
Clear
 Wind from calm
Wind: Calm
Temperature: 27°F , -3°C
Dew Point: 19°F , -7°C
Humidity: 74%
Barometer: 30.16 inHg , 1021.3 hPa
Clouds: Clear
Visibility: 10 miles , 16 km
2018/02/22 10:55 KO22 221055Z AUTO 00000KT 10SM CLR M03/M07 A3016 RMK AO1
 
KLHM - Lincoln, California, USA
Distance from station: W 88mi, 141km
Updated: Thu, 22-Feb-2018 2:55am PST
Overcast
Overcast
 Wind from SSE
Wind: SSE 9 mph , 15 km/h
Temperature: 39°F , 4°C
Wind Chill: 33°F , 1°C
Dew Point: 30°F , -1°C
Humidity: 70%
Barometer: 30.14 inHg , 1020.7 hPa
Clouds: Overcast
Visibility: 10 miles , 16 km
Cloud details: Overcast 12000 ft
2018/02/22 10:55 KLHM 221055Z AUTO 15008KT 10SM OVC120 04/M01 A3014 RMK AO1
KBAB - Beale Afb/Marysv, California, USA
Distance from station: W 91mi, 147km
Updated: Thu, 22-Feb-2018 2:58am PST
Overcast
Overcast
 Wind from SSE
Wind: SSE 12 mph , 19 km/h
Temperature: 41°F , 5°C
Wind Chill: 34°F , 1°C
Dew Point: 28°F , -2°C
Humidity: 61%
Barometer: 30.12 inHg , 1020 hPa
Clouds: Overcast
Visibility: 10 miles , 16 km
Cloud details: Partly cloudy 6000 ft
Overcast 11000 ft
2018/02/22 10:58 KBAB 221058Z AUTO 15010KT 10SM SCT060 OVC110 05/M02 A3012 RMK AO2 SLP203 T00491020 $
 
KMHR - Mather Field, California, USA
Distance from station: WSW 91mi, 147km
Updated: Thu, 22-Feb-2018 2:55am PST
Mostly cloudy
Mostly cloudy
 Wind from SE
Wind: SE 10 mph , 17 km/h
Temperature: 34°F , 1°C
Wind Chill: 26°F , -3°C
Dew Point: 28°F , -2°C
Humidity: 81%
Barometer: 30.16 inHg , 1021.3 hPa
Clouds: Mostly cloudy
Visibility: 10 miles , 16 km
Cloud details: Mostly cloudy 6500 ft
2018/02/22 10:55 KMHR 221055Z 13009KT 10SM BKN065 01/M02 A3016
KLOL - Lovelock, Nevada, USA
Distance from station: NE 94mi, 151km
Updated: Thu, 22-Feb-2018 2:53am PST
Overcast
Overcast
 Wind from WSW
Wind: WSW 13 mph , 20 km/h
Temperature: 30°F , -1°C
Wind Chill: 20°F , -7°C
Dew Point: 12°F , -11°C
Humidity: 47%
Barometer: 29.93 inHg , 1013.5 hPa
Clouds: Overcast
Visibility: 10 miles , 16 km
Cloud details: Partly cloudy 8500 ft
Overcast 11000 ft
2018/02/22 10:53 KLOL 221053Z AUTO 24011KT 10SM SCT085 OVC110 M01/M11 A2993 RMK AO2 SLP152 T10061106
 
KMCC - Mcclellan Afb, California, USA
Distance from station: WSW 94mi, 151km
Updated: Thu, 22-Feb-2018 2:55am PST
Partly cloudy
Partly cloudy
 Wind from SE
Wind: SE 10 mph , 17 km/h
Temperature: 39°F , 4°C
Wind Chill: 32°F , 0°C
Dew Point: 32°F , 0°C
Humidity: 75%
Barometer: 30.17 inHg , 1021.7 hPa
Clouds: Partly cloudy
Visibility: 10 miles , 16 km
Cloud details: Partly cloudy 12000 ft
2018/02/22 10:55 KMCC 221055Z AUTO 14009KT 10SM SCT120 04/00 A3017 RMK AO2
KMYV - Marysville, California, USA
Distance from station: W 99mi, 159km
Updated: Thu, 22-Feb-2018 2:53am PST
Mostly cloudy
Mostly cloudy
 Wind from SSE
Wind: SSE 13 mph , 20 km/h
Temperature: 39°F , 4°C
Wind Chill: 31°F , -1°C
Dew Point: 32°F , 0°C
Humidity: 75%
Barometer: 30.14 inHg , 1020.7 hPa
Clouds: Mostly cloudy
Visibility: 10 miles , 16 km
Cloud details: Mostly cloudy 12000 ft
2018/02/22 10:53 KMYV 221053Z AUTO 15011KT 10SM BKN120 04/00 A3014 RMK AO2 SLP209 T00440000
Honor Flight NV - Honoring all of our Veterans CoCoRaHS (Community Collaborative Rain, Hail and Snow Network) Station Number: NV-DG-2 Live Lightning Map - USA Reno Skywarn Spotter ID: DO21 AlertID Southwestern Weather Network Carson Valley Community Food Closet - providing for the needs of our community